sensor_id;sensor_type;location;lat;lon;timestamp;P1;durP1;ratioP1;P2;durP2;ratioP2
61840;SDS011;47773;53.174;6.614;2023-02-07T00:00:02;30.00;;;9.77;;
61840;SDS011;47773;53.174;6.614;2023-02-07T00:02:30;30.40;;;10.60;;
61840;SDS011;47773;53.174;6.614;2023-02-07T00:04:56;29.38;;;10.27;;
61840;SDS011;47773;53.174;6.614;2023-02-07T00:07:21;34.63;;;11.07;;
61840;SDS011;47773;53.174;6.614;2023-02-07T00:09:47;36.15;;;12.40;;
61840;SDS011;47773;53.174;6.614;2023-02-07T00:12:14;34.33;;;11.05;;
61840;SDS011;47773;53.174;6.614;2023-02-07T00:14:40;33.83;;;11.48;;
61840;SDS011;47773;53.174;6.614;2023-02-07T00:17:05;24.42;;;10.45;;
61840;SDS011;47773;53.174;6.614;2023-02-07T00:19:31;36.58;;;11.07;;
61840;SDS011;47773;53.174;6.614;2023-02-07T00:21:57;30.70;;;11.48;;
61840;SDS011;47773;53.174;6.614;2023-02-07T00:24:22;26.85;;;10.77;;
61840;SDS011;47773;53.174;6.614;2023-02-07T00:26:48;35.92;;;11.65;;
61840;SDS011;47773;53.174;6.614;2023-02-07T00:29:16;34.80;;;11.43;;
61840;SDS011;47773;53.174;6.614;2023-02-07T00:31:43;32.15;;;11.25;;
61840;SDS011;47773;53.174;6.614;2023-02-07T00:34:09;25.95;;;10.57;;
61840;SDS011;47773;53.174;6.614;2023-02-07T00:36:35;33.42;;;11.43;;
61840;SDS011;47773;53.174;6.614;2023-02-07T00:39:03;31.33;;;10.90;;
61840;SDS011;47773;53.174;6.614;2023-02-07T00:41:35;34.97;;;11.90;;
61840;SDS011;47773;53.174;6.614;2023-02-07T00:44:02;33.72;;;11.35;;
61840;SDS011;47773;53.174;6.614;2023-02-07T00:46:28;38.17;;;12.05;;
61840;SDS011;47773;53.174;6.614;2023-02-07T00:48:54;28.60;;;11.77;;
61840;SDS011;47773;53.174;6.614;2023-02-07T00:51:19;33.08;;;11.30;;
61840;SDS011;47773;53.174;6.614;2023-02-07T00:53:45;32.97;;;12.13;;
61840;SDS011;47773;53.174;6.614;2023-02-07T00:56:12;31.08;;;10.90;;
61840;SDS011;47773;53.174;6.614;2023-02-07T00:58:38;39.88;;;12.02;;
61840;SDS011;47773;53.174;6.614;2023-02-07T01:01:04;32.17;;;11.20;;
61840;SDS011;47773;53.174;6.614;2023-02-07T01:03:30;35.33;;;11.18;;
61840;SDS011;47773;53.174;6.614;2023-02-07T01:05:56;36.50;;;12.27;;
61840;SDS011;47773;53.174;6.614;2023-02-07T01:08:22;39.13;;;11.88;;
61840;SDS011;47773;53.174;6.614;2023-02-07T01:10:47;34.50;;;11.65;;
61840;SDS011;47773;53.174;6.614;2023-02-07T01:13:13;33.75;;;11.35;;
61840;SDS011;47773;53.174;6.614;2023-02-07T01:15:40;34.35;;;12.65;;
61840;SDS011;47773;53.174;6.614;2023-02-07T01:18:08;40.65;;;11.55;;
61840;SDS011;47773;53.174;6.614;2023-02-07T01:20:34;32.08;;;12.35;;
61840;SDS011;47773;53.174;6.614;2023-02-07T01:23:00;37.55;;;12.15;;
61840;SDS011;47773;53.174;6.614;2023-02-07T01:25:26;32.05;;;11.45;;
61840;SDS011;47773;53.174;6.614;2023-02-07T01:27:51;36.22;;;12.75;;
61840;SDS011;47773;53.174;6.614;2023-02-07T01:30:17;30.80;;;11.55;;
61840;SDS011;47773;53.174;6.614;2023-02-07T01:32:43;40.85;;;12.80;;
61840;SDS011;47773;53.174;6.614;2023-02-07T01:35:08;29.67;;;11.95;;
61840;SDS011;47773;53.174;6.614;2023-02-07T01:37:34;32.55;;;11.77;;
61840;SDS011;47773;53.174;6.614;2023-02-07T01:40:00;36.03;;;12.43;;
61840;SDS011;47773;53.174;6.614;2023-02-07T01:42:26;34.58;;;12.23;;
61840;SDS011;47773;53.174;6.614;2023-02-07T01:47:20;32.75;;;12.18;;
61840;SDS011;47773;53.174;6.614;2023-02-07T01:49:48;30.50;;;10.85;;
61840;SDS011;47773;53.174;6.614;2023-02-07T01:52:17;43.17;;;12.20;;
61840;SDS011;47773;53.174;6.614;2023-02-07T01:54:49;40.72;;;11.93;;
61840;SDS011;47773;53.174;6.614;2023-02-07T01:57:20;29.80;;;11.13;;
61840;SDS011;47773;53.174;6.614;2023-02-07T01:59:47;28.65;;;12.38;;
61840;SDS011;47773;53.174;6.614;2023-02-07T02:02:16;45.10;;;12.73;;
61840;SDS011;47773;53.174;6.614;2023-02-07T02:04:45;42.35;;;12.30;;
61840;SDS011;47773;53.174;6.614;2023-02-07T02:07:10;37.45;;;11.23;;
61840;SDS011;47773;53.174;6.614;2023-02-07T02:09:38;48.20;;;12.93;;
61840;SDS011;47773;53.174;6.614;2023-02-07T02:15:01;39.03;;;12.70;;
61840;SDS011;47773;53.174;6.614;2023-02-07T02:26:03;41.38;;;13.50;;
61840;SDS011;47773;53.174;6.614;2023-02-07T02:37:18;33.88;;;13.45;;
61840;SDS011;47773;53.174;6.614;2023-02-07T02:40:07;34.75;;;13.95;;
61840;SDS011;47773;53.174;6.614;2023-02-07T02:42:51;35.35;;;14.05;;
61840;SDS011;47773;53.174;6.614;2023-02-07T02:45:29;40.55;;;14.02;;
61840;SDS011;47773;53.174;6.614;2023-02-07T02:48:03;34.03;;;14.07;;
61840;SDS011;47773;53.174;6.614;2023-02-07T02:50:33;34.72;;;13.88;;
61840;SDS011;47773;53.174;6.614;2023-02-07T02:52:59;38.67;;;13.90;;
61840;SDS011;47773;53.174;6.614;2023-02-07T02:55:49;34.88;;;13.68;;
61840;SDS011;47773;53.174;6.614;2023-02-07T03:01:56;33.38;;;13.60;;
61840;SDS011;47773;53.174;6.614;2023-02-07T03:09:53;34.88;;;13.85;;
61840;SDS011;47773;53.174;6.614;2023-02-07T03:12:26;41.70;;;14.93;;
61840;SDS011;47773;53.174;6.614;2023-02-07T03:15:06;43.85;;;14.77;;
61840;SDS011;47773;53.174;6.614;2023-02-07T03:17:55;44.13;;;15.45;;
61840;SDS011;47773;53.174;6.614;2023-02-07T03:20:42;36.30;;;14.40;;
61840;SDS011;47773;53.174;6.614;2023-02-07T03:23:12;35.58;;;15.35;;
61840;SDS011;47773;53.174;6.614;2023-02-07T03:25:41;39.42;;;15.10;;
61840;SDS011;47773;53.174;6.614;2023-02-07T03:28:08;39.50;;;15.88;;
61840;SDS011;47773;53.174;6.614;2023-02-07T03:30:36;44.88;;;15.57;;
61840;SDS011;47773;53.174;6.614;2023-02-07T03:33:06;36.17;;;14.77;;
61840;SDS011;47773;53.174;6.614;2023-02-07T03:35:40;43.95;;;15.85;;
61840;SDS011;47773;53.174;6.614;2023-02-07T03:38:30;38.58;;;15.38;;
61840;SDS011;47773;53.174;6.614;2023-02-07T03:41:00;38.88;;;15.50;;
61840;SDS011;47773;53.174;6.614;2023-02-07T03:43:31;39.40;;;15.75;;
61840;SDS011;47773;53.174;6.614;2023-02-07T03:45:58;30.92;;;14.10;;
61840;SDS011;47773;53.174;6.614;2023-02-07T03:48:24;38.50;;;15.50;;
61840;SDS011;47773;53.174;6.614;2023-02-07T03:50:50;36.47;;;14.65;;
61840;SDS011;47773;53.174;6.614;2023-02-07T03:53:17;41.05;;;15.43;;
61840;SDS011;47773;53.174;6.614;2023-02-07T03:55:44;42.10;;;15.30;;
61840;SDS011;47773;53.174;6.614;2023-02-07T03:58:09;37.47;;;15.43;;
61840;SDS011;47773;53.174;6.614;2023-02-07T04:00:35;38.25;;;14.60;;
61840;SDS011;47773;53.174;6.614;2023-02-07T04:03:01;45.67;;;16.05;;
61840;SDS011;47773;53.174;6.614;2023-02-07T04:05:27;35.50;;;14.63;;
61840;SDS011;47773;53.174;6.614;2023-02-07T04:07:53;34.30;;;15.23;;
61840;SDS011;47773;53.174;6.614;2023-02-07T04:10:19;37.47;;;14.32;;
61840;SDS011;47773;53.174;6.614;2023-02-07T04:12:44;33.47;;;15.57;;
61840;SDS011;47773;53.174;6.614;2023-02-07T04:15:10;36.30;;;14.82;;
61840;SDS011;47773;53.174;6.614;2023-02-07T04:17:36;38.50;;;15.73;;
61840;SDS011;47773;53.174;6.614;2023-02-07T04:20:02;40.17;;;15.57;;
61840;SDS011;47773;53.174;6.614;2023-02-07T04:22:29;41.33;;;15.88;;
61840;SDS011;47773;53.174;6.614;2023-02-07T04:24:55;41.20;;;15.85;;
61840;SDS011;47773;53.174;6.614;2023-02-07T04:27:21;39.35;;;15.80;;
61840;SDS011;47773;53.174;6.614;2023-02-07T04:29:47;37.80;;;15.57;;
61840;SDS011;47773;53.174;6.614;2023-02-07T04:32:12;35.63;;;14.57;;
61840;SDS011;47773;53.174;6.614;2023-02-07T04:34:38;35.45;;;14.90;;
61840;SDS011;47773;53.174;6.614;2023-02-07T04:37:03;37.65;;;15.77;;
61840;SDS011;47773;53.174;6.614;2023-02-07T04:39:29;39.00;;;15.27;;
61840;SDS011;47773;53.174;6.614;2023-02-07T04:41:55;43.42;;;14.95;;
61840;SDS011;47773;53.174;6.614;2023-02-07T04:44:20;36.78;;;15.60;;
61840;SDS011;47773;53.174;6.614;2023-02-07T04:46:46;41.20;;;16.00;;
61840;SDS011;47773;53.174;6.614;2023-02-07T04:49:11;38.30;;;14.82;;
61840;SDS011;47773;53.174;6.614;2023-02-07T04:51:37;38.25;;;16.67;;
61840;SDS011;47773;53.174;6.614;2023-02-07T04:54:03;35.20;;;15.32;;
61840;SDS011;47773;53.174;6.614;2023-02-07T04:56:28;40.00;;;17.45;;
61840;SDS011;47773;53.174;6.614;2023-02-07T04:58:54;39.75;;;17.67;;
61840;SDS011;47773;53.174;6.614;2023-02-07T05:01:20;40.67;;;16.42;;
61840;SDS011;47773;53.174;6.614;2023-02-07T05:03:45;36.88;;;16.55;;
61840;SDS011;47773;53.174;6.614;2023-02-07T05:06:11;39.60;;;17.17;;
61840;SDS011;47773;53.174;6.614;2023-02-07T05:08:37;40.63;;;16.95;;
61840;SDS011;47773;53.174;6.614;2023-02-07T05:11:03;38.55;;;16.60;;
61840;SDS011;47773;53.174;6.614;2023-02-07T05:13:30;43.88;;;17.30;;
61840;SDS011;47773;53.174;6.614;2023-02-07T05:15:56;44.42;;;17.85;;
61840;SDS011;47773;53.174;6.614;2023-02-07T05:18:21;46.08;;;17.77;;
61840;SDS011;47773;53.174;6.614;2023-02-07T05:20:47;45.42;;;18.23;;
61840;SDS011;47773;53.174;6.614;2023-02-07T05:23:13;40.95;;;17.52;;
61840;SDS011;47773;53.174;6.614;2023-02-07T05:25:42;55.80;;;20.35;;
61840;SDS011;47773;53.174;6.614;2023-02-07T05:28:08;48.20;;;20.10;;
61840;SDS011;47773;53.174;6.614;2023-02-07T05:30:34;44.28;;;18.17;;
61840;SDS011;47773;53.174;6.614;2023-02-07T05:33:00;48.08;;;18.35;;
61840;SDS011;47773;53.174;6.614;2023-02-07T05:35:30;41.58;;;18.00;;
61840;SDS011;47773;53.174;6.614;2023-02-07T05:37:59;48.25;;;19.23;;
61840;SDS011;47773;53.174;6.614;2023-02-07T05:40:26;42.85;;;18.02;;
61840;SDS011;47773;53.174;6.614;2023-02-07T05:42:52;41.28;;;16.63;;
61840;SDS011;47773;53.174;6.614;2023-02-07T05:45:19;42.47;;;16.48;;
61840;SDS011;47773;53.174;6.614;2023-02-07T05:47:45;45.65;;;17.48;;
61840;SDS011;47773;53.174;6.614;2023-02-07T05:50:10;40.92;;;17.42;;
61840;SDS011;47773;53.174;6.614;2023-02-07T05:52:36;44.97;;;17.42;;
61840;SDS011;47773;53.174;6.614;2023-02-07T05:55:02;48.45;;;17.17;;
61840;SDS011;47773;53.174;6.614;2023-02-07T05:57:29;40.97;;;17.27;;
61840;SDS011;47773;53.174;6.614;2023-02-07T05:59:55;44.72;;;17.05;;
61840;SDS011;47773;53.174;6.614;2023-02-07T06:02:21;37.25;;;17.02;;
61840;SDS011;47773;53.174;6.614;2023-02-07T06:04:46;40.35;;;16.50;;
61840;SDS011;47773;53.174;6.614;2023-02-07T06:07:12;47.75;;;17.95;;
61840;SDS011;47773;53.174;6.614;2023-02-07T06:09:38;47.30;;;18.10;;
61840;SDS011;47773;53.174;6.614;2023-02-07T06:12:03;39.00;;;17.08;;
61840;SDS011;47773;53.174;6.614;2023-02-07T06:14:29;36.90;;;16.50;;
61840;SDS011;47773;53.174;6.614;2023-02-07T06:16:55;43.75;;;16.90;;
61840;SDS011;47773;53.174;6.614;2023-02-07T06:19:20;46.95;;;18.13;;
61840;SDS011;47773;53.174;6.614;2023-02-07T06:21:46;42.53;;;16.52;;
61840;SDS011;47773;53.174;6.614;2023-02-07T06:24:12;39.10;;;16.83;;
61840;SDS011;47773;53.174;6.614;2023-02-07T06:26:38;47.70;;;16.25;;
61840;SDS011;47773;53.174;6.614;2023-02-07T06:29:04;37.72;;;16.25;;
61840;SDS011;47773;53.174;6.614;2023-02-07T06:31:29;38.00;;;17.02;;
61840;SDS011;47773;53.174;6.614;2023-02-07T06:33:55;41.58;;;17.10;;
61840;SDS011;47773;53.174;6.614;2023-02-07T06:36:20;40.25;;;17.08;;
61840;SDS011;47773;53.174;6.614;2023-02-07T06:38:46;39.15;;;17.77;;
61840;SDS011;47773;53.174;6.614;2023-02-07T06:41:13;41.63;;;17.98;;
61840;SDS011;47773;53.174;6.614;2023-02-07T06:43:39;37.40;;;17.55;;
61840;SDS011;47773;53.174;6.614;2023-02-07T06:46:05;45.63;;;17.95;;
61840;SDS011;47773;53.174;6.614;2023-02-07T06:48:31;41.17;;;16.55;;
61840;SDS011;47773;53.174;6.614;2023-02-07T06:50:57;38.72;;;17.02;;
61840;SDS011;47773;53.174;6.614;2023-02-07T06:53:22;37.67;;;16.67;;
61840;SDS011;47773;53.174;6.614;2023-02-07T06:55:48;45.88;;;17.95;;
61840;SDS011;47773;53.174;6.614;2023-02-07T06:58:14;37.90;;;16.08;;
61840;SDS011;47773;53.174;6.614;2023-02-07T07:00:39;38.97;;;16.05;;
61840;SDS011;47773;53.174;6.614;2023-02-07T07:03:05;39.35;;;15.95;;
61840;SDS011;47773;53.174;6.614;2023-02-07T07:05:31;37.65;;;15.70;;
61840;SDS011;47773;53.174;6.614;2023-02-07T07:07:57;39.70;;;16.27;;
61840;SDS011;47773;53.174;6.614;2023-02-07T07:10:22;40.28;;;16.98;;
61840;SDS011;47773;53.174;6.614;2023-02-07T07:12:48;32.95;;;15.98;;
61840;SDS011;47773;53.174;6.614;2023-02-07T07:15:14;43.08;;;16.55;;
61840;SDS011;47773;53.174;6.614;2023-02-07T07:17:40;40.13;;;15.77;;
61840;SDS011;47773;53.174;6.614;2023-02-07T07:20:06;41.05;;;16.88;;
61840;SDS011;47773;53.174;6.614;2023-02-07T07:22:33;35.47;;;16.13;;
61840;SDS011;47773;53.174;6.614;2023-02-07T07:24:58;37.60;;;16.58;;
61840;SDS011;47773;53.174;6.614;2023-02-07T07:27:24;47.25;;;15.98;;
61840;SDS011;47773;53.174;6.614;2023-02-07T07:29:50;34.35;;;14.93;;
61840;SDS011;47773;53.174;6.614;2023-02-07T07:32:16;46.03;;;17.52;;
61840;SDS011;47773;53.174;6.614;2023-02-07T07:34:41;37.75;;;17.40;;
61840;SDS011;47773;53.174;6.614;2023-02-07T07:37:07;43.08;;;17.08;;
61840;SDS011;47773;53.174;6.614;2023-02-07T07:39:33;45.53;;;17.15;;
61840;SDS011;47773;53.174;6.614;2023-02-07T07:41:58;36.20;;;16.35;;
61840;SDS011;47773;53.174;6.614;2023-02-07T07:44:24;34.90;;;15.48;;
61840;SDS011;47773;53.174;6.614;2023-02-07T07:46:50;36.17;;;16.63;;
61840;SDS011;47773;53.174;6.614;2023-02-07T07:49:16;35.60;;;15.57;;
61840;SDS011;47773;53.174;6.614;2023-02-07T07:51:42;37.30;;;16.55;;
61840;SDS011;47773;53.174;6.614;2023-02-07T07:54:08;35.42;;;16.65;;
61840;SDS011;47773;53.174;6.614;2023-02-07T07:56:33;32.38;;;14.90;;
61840;SDS011;47773;53.174;6.614;2023-02-07T07:58:59;35.13;;;15.98;;
61840;SDS011;47773;53.174;6.614;2023-02-07T08:01:26;38.83;;;15.65;;
61840;SDS011;47773;53.174;6.614;2023-02-07T08:03:51;33.85;;;16.38;;
61840;SDS011;47773;53.174;6.614;2023-02-07T08:06:17;37.70;;;15.18;;
61840;SDS011;47773;53.174;6.614;2023-02-07T08:08:43;32.03;;;15.95;;
61840;SDS011;47773;53.174;6.614;2023-02-07T08:11:09;37.50;;;16.08;;
61840;SDS011;47773;53.174;6.614;2023-02-07T08:13:35;37.25;;;16.63;;
61840;SDS011;47773;53.174;6.614;2023-02-07T08:16:02;34.88;;;16.67;;
61840;SDS011;47773;53.174;6.614;2023-02-07T08:18:28;33.50;;;15.52;;
61840;SDS011;47773;53.174;6.614;2023-02-07T08:20:54;34.88;;;16.05;;
61840;SDS011;47773;53.174;6.614;2023-02-07T08:23:20;34.03;;;15.35;;
61840;SDS011;47773;53.174;6.614;2023-02-07T08:25:46;31.77;;;14.98;;
61840;SDS011;47773;53.174;6.614;2023-02-07T08:28:14;33.80;;;15.07;;
61840;SDS011;47773;53.174;6.614;2023-02-07T08:30:40;32.97;;;15.55;;
61840;SDS011;47773;53.174;6.614;2023-02-07T08:33:06;37.92;;;16.55;;
61840;SDS011;47773;53.174;6.614;2023-02-07T08:35:32;39.25;;;16.00;;
61840;SDS011;47773;53.174;6.614;2023-02-07T08:37:58;38.88;;;15.15;;
61840;SDS011;47773;53.174;6.614;2023-02-07T08:40:24;34.45;;;15.15;;
61840;SDS011;47773;53.174;6.614;2023-02-07T08:42:50;37.92;;;15.13;;
61840;SDS011;47773;53.174;6.614;2023-02-07T08:45:16;26.05;;;13.95;;
61840;SDS011;47773;53.174;6.614;2023-02-07T08:47:45;34.75;;;14.52;;
61840;SDS011;47773;53.174;6.614;2023-02-07T08:50:12;33.60;;;14.43;;
61840;SDS011;47773;53.174;6.614;2023-02-07T08:52:38;29.05;;;14.85;;
61840;SDS011;47773;53.174;6.614;2023-02-07T08:55:05;31.83;;;15.02;;
61840;SDS011;47773;53.174;6.614;2023-02-07T08:57:31;31.80;;;15.40;;
61840;SDS011;47773;53.174;6.614;2023-02-07T08:59:57;30.90;;;14.65;;
61840;SDS011;47773;53.174;6.614;2023-02-07T09:02:23;26.48;;;13.95;;
61840;SDS011;47773;53.174;6.614;2023-02-07T09:04:50;27.90;;;13.75;;
61840;SDS011;47773;53.174;6.614;2023-02-07T09:07:16;28.92;;;13.95;;
61840;SDS011;47773;53.174;6.614;2023-02-07T09:09:42;28.98;;;13.23;;
61840;SDS011;47773;53.174;6.614;2023-02-07T09:12:07;30.92;;;13.75;;
61840;SDS011;47773;53.174;6.614;2023-02-07T09:14:34;27.83;;;13.25;;
61840;SDS011;47773;53.174;6.614;2023-02-07T09:17:00;25.48;;;13.02;;
61840;SDS011;47773;53.174;6.614;2023-02-07T09:19:26;30.75;;;13.77;;
61840;SDS011;47773;53.174;6.614;2023-02-07T09:21:52;28.80;;;13.48;;
61840;SDS011;47773;53.174;6.614;2023-02-07T09:24:17;27.10;;;12.60;;
61840;SDS011;47773;53.174;6.614;2023-02-07T09:26:43;29.40;;;12.45;;
61840;SDS011;47773;53.174;6.614;2023-02-07T09:29:10;27.85;;;12.57;;
61840;SDS011;47773;53.174;6.614;2023-02-07T09:31:38;25.17;;;13.23;;
61840;SDS011;47773;53.174;6.614;2023-02-07T09:34:04;24.90;;;12.00;;
61840;SDS011;47773;53.174;6.614;2023-02-07T09:36:30;28.85;;;12.18;;
61840;SDS011;47773;53.174;6.614;2023-02-07T09:38:56;21.33;;;11.38;;
61840;SDS011;47773;53.174;6.614;2023-02-07T09:44:05;29.85;;;12.52;;
61840;SDS011;47773;53.174;6.614;2023-02-07T09:46:59;28.20;;;13.30;;
61840;SDS011;47773;53.174;6.614;2023-02-07T09:49:43;25.60;;;12.90;;
61840;SDS011;47773;53.174;6.614;2023-02-07T09:52:19;31.45;;;13.30;;
61840;SDS011;47773;53.174;6.614;2023-02-07T09:54:48;25.58;;;12.50;;
61840;SDS011;47773;53.174;6.614;2023-02-07T09:57:21;27.02;;;13.02;;
61840;SDS011;47773;53.174;6.614;2023-02-07T10:00:01;32.70;;;12.40;;
61840;SDS011;47773;53.174;6.614;2023-02-07T10:02:47;25.67;;;12.20;;
61840;SDS011;47773;53.174;6.614;2023-02-07T10:05:21;30.40;;;13.68;;
61840;SDS011;47773;53.174;6.614;2023-02-07T10:07:53;29.55;;;13.38;;
61840;SDS011;47773;53.174;6.614;2023-02-07T10:10:24;27.05;;;13.30;;
61840;SDS011;47773;53.174;6.614;2023-02-07T10:18:50;25.88;;;13.38;;
61840;SDS011;47773;53.174;6.614;2023-02-07T10:30:46;28.08;;;13.27;;
61840;SDS011;47773;53.174;6.614;2023-02-07T10:35:50;26.23;;;12.85;;
61840;SDS011;47773;53.174;6.614;2023-02-07T10:38:29;29.48;;;13.85;;
61840;SDS011;47773;53.174;6.614;2023-02-07T10:44:11;33.60;;;14.05;;
61840;SDS011;47773;53.174;6.614;2023-02-07T10:46:39;29.20;;;14.73;;
61840;SDS011;47773;53.174;6.614;2023-02-07T10:49:12;31.77;;;13.20;;
61840;SDS011;47773;53.174;6.614;2023-02-07T10:51:45;26.00;;;13.55;;
61840;SDS011;47773;53.174;6.614;2023-02-07T10:54:18;33.15;;;13.55;;
61840;SDS011;47773;53.174;6.614;2023-02-07T10:56:54;32.03;;;13.80;;
61840;SDS011;47773;53.174;6.614;2023-02-07T10:59:35;40.28;;;14.30;;
61840;SDS011;47773;53.174;6.614;2023-02-07T11:04:56;31.23;;;14.23;;
61840;SDS011;47773;53.174;6.614;2023-02-07T11:07:41;29.38;;;13.98;;
61840;SDS011;47773;53.174;6.614;2023-02-07T11:10:37;34.83;;;14.57;;
61840;SDS011;47773;53.174;6.614;2023-02-07T11:13:05;32.28;;;14.88;;
61840;SDS011;47773;53.174;6.614;2023-02-07T11:15:53;36.78;;;15.95;;
61840;SDS011;47773;53.174;6.614;2023-02-07T11:20:52;30.75;;;14.57;;
61840;SDS011;47773;53.174;6.614;2023-02-07T11:23:20;36.33;;;16.42;;
61840;SDS011;47773;53.174;6.614;2023-02-07T11:25:47;32.63;;;15.88;;
61840;SDS011;47773;53.174;6.614;2023-02-07T11:28:21;38.92;;;16.58;;
61840;SDS011;47773;53.174;6.614;2023-02-07T11:30:57;31.45;;;15.18;;
61840;SDS011;47773;53.174;6.614;2023-02-07T11:33:27;35.45;;;15.13;;
61840;SDS011;47773;53.174;6.614;2023-02-07T11:36:03;33.80;;;16.00;;
61840;SDS011;47773;53.174;6.614;2023-02-07T11:38:54;38.28;;;15.73;;
61840;SDS011;47773;53.174;6.614;2023-02-07T11:41:26;35.20;;;17.10;;
61840;SDS011;47773;53.174;6.614;2023-02-07T11:44:35;37.75;;;15.77;;
61840;SDS011;47773;53.174;6.614;2023-02-07T11:46:43;41.17;;;16.63;;
61840;SDS011;47773;53.174;6.614;2023-02-07T11:49:25;33.55;;;15.18;;
61840;SDS011;47773;53.174;6.614;2023-02-07T11:51:54;34.35;;;15.52;;
61840;SDS011;47773;53.174;6.614;2023-02-07T11:54:22;35.17;;;15.60;;
61840;SDS011;47773;53.174;6.614;2023-02-07T11:56:49;35.90;;;15.52;;
61840;SDS011;47773;53.174;6.614;2023-02-07T11:59:20;44.22;;;16.92;;
61840;SDS011;47773;53.174;6.614;2023-02-07T12:01:49;43.65;;;15.93;;
61840;SDS011;47773;53.174;6.614;2023-02-07T12:04:17;35.42;;;16.55;;
61840;SDS011;47773;53.174;6.614;2023-02-07T12:06:46;36.15;;;16.45;;
61840;SDS011;47773;53.174;6.614;2023-02-07T12:11:47;38.15;;;16.50;;
61840;SDS011;47773;53.174;6.614;2023-02-07T12:14:34;39.67;;;16.88;;
61840;SDS011;47773;53.174;6.614;2023-02-07T12:17:15;40.83;;;16.90;;
61840;SDS011;47773;53.174;6.614;2023-02-07T12:19:52;39.28;;;17.25;;
61840;SDS011;47773;53.174;6.614;2023-02-07T12:22:23;36.42;;;16.45;;
61840;SDS011;47773;53.174;6.614;2023-02-07T12:24:57;39.42;;;16.45;;
61840;SDS011;47773;53.174;6.614;2023-02-07T12:27:29;35.28;;;16.77;;
61840;SDS011;47773;53.174;6.614;2023-02-07T12:30:03;34.20;;;16.27;;
61840;SDS011;47773;53.174;6.614;2023-02-07T12:32:49;36.75;;;14.95;;
61840;SDS011;47773;53.174;6.614;2023-02-07T12:45:51;37.30;;;16.17;;
61840;SDS011;47773;53.174;6.614;2023-02-07T12:48:30;35.95;;;14.35;;
61840;SDS011;47773;53.174;6.614;2023-02-07T12:59:13;31.73;;;14.77;;
61840;SDS011;47773;53.174;6.614;2023-02-07T13:07:35;34.38;;;14.30;;
61840;SDS011;47773;53.174;6.614;2023-02-07T13:10:20;32.25;;;14.15;;
61840;SDS011;47773;53.174;6.614;2023-02-07T13:16:01;41.25;;;16.33;;
61840;SDS011;47773;53.174;6.614;2023-02-07T13:21:12;33.40;;;14.32;;
61840;SDS011;47773;53.174;6.614;2023-02-07T13:23:41;35.40;;;14.90;;
61840;SDS011;47773;53.174;6.614;2023-02-07T13:26:20;36.17;;;14.95;;
61840;SDS011;47773;53.174;6.614;2023-02-07T13:28:57;34.78;;;14.82;;
61840;SDS011;47773;53.174;6.614;2023-02-07T13:34:41;39.38;;;16.17;;
61840;SDS011;47773;53.174;6.614;2023-02-07T13:37:10;39.10;;;15.57;;
61840;SDS011;47773;53.174;6.614;2023-02-07T13:42:59;27.90;;;12.63;;
61840;SDS011;47773;53.174;6.614;2023-02-07T13:51:10;35.72;;;16.23;;
61840;SDS011;47773;53.174;6.614;2023-02-07T13:57:00;31.83;;;15.02;;
61840;SDS011;47773;53.174;6.614;2023-02-07T14:00:08;34.88;;;14.50;;
61840;SDS011;47773;53.174;6.614;2023-02-07T14:02:51;37.00;;;15.50;;
61840;SDS011;47773;53.174;6.614;2023-02-07T14:07:54;33.35;;;14.55;;
61840;SDS011;47773;53.174;6.614;2023-02-07T14:10:47;30.98;;;14.07;;
61840;SDS011;47773;53.174;6.614;2023-02-07T14:16:09;31.25;;;14.25;;
61840;SDS011;47773;53.174;6.614;2023-02-07T14:18:43;29.88;;;14.63;;
61840;SDS011;47773;53.174;6.614;2023-02-07T14:21:23;34.05;;;14.40;;
61840;SDS011;47773;53.174;6.614;2023-02-07T14:29:50;31.13;;;13.45;;
61840;SDS011;47773;53.174;6.614;2023-02-07T14:31:57;29.63;;;13.68;;
61840;SDS011;47773;53.174;6.614;2023-02-07T14:34:35;31.38;;;12.98;;
61840;SDS011;47773;53.174;6.614;2023-02-07T14:37:58;27.58;;;12.80;;
61840;SDS011;47773;53.174;6.614;2023-02-07T14:40:26;29.48;;;13.13;;
61840;SDS011;47773;53.174;6.614;2023-02-07T14:43:15;27.20;;;12.10;;
61840;SDS011;47773;53.174;6.614;2023-02-07T14:51:22;25.02;;;11.40;;
61840;SDS011;47773;53.174;6.614;2023-02-07T14:54:15;32.10;;;13.10;;
61840;SDS011;47773;53.174;6.614;2023-02-07T15:05:08;23.45;;;10.75;;
61840;SDS011;47773;53.174;6.614;2023-02-07T15:07:42;29.70;;;12.63;;
61840;SDS011;47773;53.174;6.614;2023-02-07T15:10:25;25.27;;;11.45;;
61840;SDS011;47773;53.174;6.614;2023-02-07T15:12:58;23.73;;;13.18;;
61840;SDS011;47773;53.174;6.614;2023-02-07T15:15:27;29.52;;;12.30;;
61840;SDS011;47773;53.174;6.614;2023-02-07T15:17:56;25.90;;;11.65;;
61840;SDS011;47773;53.174;6.614;2023-02-07T15:20:28;24.10;;;12.18;;
61840;SDS011;47773;53.174;6.614;2023-02-07T15:22:57;29.70;;;12.75;;
61840;SDS011;47773;53.174;6.614;2023-02-07T15:25:25;30.30;;;12.73;;
61840;SDS011;47773;53.174;6.614;2023-02-07T15:28:05;26.33;;;12.45;;
61840;SDS011;47773;53.174;6.614;2023-02-07T15:31:01;30.77;;;12.10;;
61840;SDS011;47773;53.174;6.614;2023-02-07T15:36:27;24.40;;;11.68;;
61840;SDS011;47773;53.174;6.614;2023-02-07T15:38:56;27.13;;;11.98;;
61840;SDS011;47773;53.174;6.614;2023-02-07T15:41:23;24.88;;;12.52;;
61840;SDS011;47773;53.174;6.614;2023-02-07T15:46:45;24.85;;;12.55;;
61840;SDS011;47773;53.174;6.614;2023-02-07T15:54:50;30.85;;;13.20;;
61840;SDS011;47773;53.174;6.614;2023-02-07T16:00:00;24.35;;;12.48;;
61840;SDS011;47773;53.174;6.614;2023-02-07T16:02:32;28.67;;;12.65;;
61840;SDS011;47773;53.174;6.614;2023-02-07T16:05:10;27.98;;;12.55;;
61840;SDS011;47773;53.174;6.614;2023-02-07T16:07:46;28.30;;;12.70;;
61840;SDS011;47773;53.174;6.614;2023-02-07T16:10:18;23.35;;;12.27;;
61840;SDS011;47773;53.174;6.614;2023-02-07T16:12:47;29.48;;;12.10;;
61840;SDS011;47773;53.174;6.614;2023-02-07T16:15:25;25.15;;;12.73;;
61840;SDS011;47773;53.174;6.614;2023-02-07T16:17:59;25.25;;;12.55;;
61840;SDS011;47773;53.174;6.614;2023-02-07T16:20:27;27.15;;;12.07;;
61840;SDS011;47773;53.174;6.614;2023-02-07T16:22:55;24.17;;;12.60;;
61840;SDS011;47773;53.174;6.614;2023-02-07T16:25:25;33.47;;;13.55;;
61840;SDS011;47773;53.174;6.614;2023-02-07T16:27:54;30.90;;;13.90;;
61840;SDS011;47773;53.174;6.614;2023-02-07T16:30:22;26.27;;;12.93;;
61840;SDS011;47773;53.174;6.614;2023-02-07T16:32:51;24.35;;;12.52;;
61840;SDS011;47773;53.174;6.614;2023-02-07T16:35:21;29.40;;;14.07;;
61840;SDS011;47773;53.174;6.614;2023-02-07T16:37:51;25.67;;;13.02;;
61840;SDS011;47773;53.174;6.614;2023-02-07T16:40:18;25.50;;;12.82;;
61840;SDS011;47773;53.174;6.614;2023-02-07T16:42:46;24.67;;;13.23;;
61840;SDS011;47773;53.174;6.614;2023-02-07T16:45:20;24.48;;;12.65;;
61840;SDS011;47773;53.174;6.614;2023-02-07T16:47:50;30.08;;;13.32;;
61840;SDS011;47773;53.174;6.614;2023-02-07T16:50:26;23.85;;;11.95;;
61840;SDS011;47773;53.174;6.614;2023-02-07T16:52:54;25.13;;;12.07;;
61840;SDS011;47773;53.174;6.614;2023-02-07T16:55:22;28.77;;;13.75;;
61840;SDS011;47773;53.174;6.614;2023-02-07T16:57:53;30.15;;;14.13;;
61840;SDS011;47773;53.174;6.614;2023-02-07T17:00:21;24.35;;;13.07;;
61840;SDS011;47773;53.174;6.614;2023-02-07T17:02:51;25.90;;;13.07;;